Aviation Digital Data Service (ADDS)

Output produced by METARs form (0517 UTC 21 January 2019)
found at http://www.aviationweather.gov/metar/data/
 
Forecast for: KHOU (HOUSTON/HOBBY , TX, US)
Text: KHOU 210258Z 2103/2124 VRB03KT P6SM SCT250
Forecast period: 0300 to 1500 UTC 21 January 2019
Forecast type: FROM: standard forecast or significant change
Winds: variable direction winds at 3 MPH (3 knots; 1.5 m/s)
Visibility: 6 or more miles 10+ km)
Ceiling: at least 12,000 feet AGL
Clouds: scattered clouds at 25000 feet AGL
Weather: no significant weather forecast for this period
Text: FM211500 10006KT P6SM SCT250
Forecast period: 1500 to 2100 UTC 21 January 2019
Forecast type: FROM: standard forecast or significant change
Winds: from the E (100 degrees) at 7 MPH (6 knots; 3.1 m/s)
Visibility: 6 or more miles 10+ km)
Ceiling: at least 12,000 feet AGL
Clouds: scattered clouds at 25000 feet AGL
Weather: no significant weather forecast for this period
Text: FM212100 15016G22KT P6SM FEW025 SCT250
Forecast period: 2100 UTC 21 January 2019 to 0000 UTC 22 January 2019
Forecast type: FROM: standard forecast or significant change
Winds: from the SSE (150 degrees) at 18 MPH (16 knots; 8.2 m/s)
gusting to 25 MPH (22 knots; 11.3 m/s)
Visibility: 6 or more miles 10+ km)
Ceiling: at least 12,000 feet AGL
Clouds: few clouds at 2500 feet AGL
scattered clouds at 25000 feet AGL
Weather: no significant weather forecast for this period